sensor_id;sensor_type;location;lat;lon;timestamp;P1;durP1;ratioP1;P2;durP2;ratioP2
49722;SDS011;43484;43.608;1.458;2023-07-13T00:01:49;5.35;;;1.40;;
49722;SDS011;43484;43.608;1.458;2023-07-13T00:04:20;4.32;;;1.60;;
49722;SDS011;43484;43.608;1.458;2023-07-13T00:06:49;2.85;;;1.20;;
49722;SDS011;43484;43.608;1.458;2023-07-13T00:09:17;2.88;;;1.52;;
49722;SDS011;43484;43.608;1.458;2023-07-13T00:11:45;4.88;;;1.70;;
49722;SDS011;43484;43.608;1.458;2023-07-13T00:14:14;4.47;;;1.77;;
49722;SDS011;43484;43.608;1.458;2023-07-13T00:16:42;3.20;;;1.23;;
49722;SDS011;43484;43.608;1.458;2023-07-13T00:19:10;4.35;;;1.25;;
49722;SDS011;43484;43.608;1.458;2023-07-13T00:21:38;5.78;;;1.50;;
49722;SDS011;43484;43.608;1.458;2023-07-13T00:24:07;5.75;;;1.88;;
49722;SDS011;43484;43.608;1.458;2023-07-13T00:26:39;5.25;;;1.30;;
49722;SDS011;43484;43.608;1.458;2023-07-13T00:29:06;2.58;;;1.40;;
49722;SDS011;43484;43.608;1.458;2023-07-13T00:31:35;7.40;;;1.67;;
49722;SDS011;43484;43.608;1.458;2023-07-13T00:34:02;5.40;;;1.52;;
49722;SDS011;43484;43.608;1.458;2023-07-13T00:36:30;3.28;;;1.30;;
49722;SDS011;43484;43.608;1.458;2023-07-13T00:38:57;7.18;;;1.52;;
49722;SDS011;43484;43.608;1.458;2023-07-13T00:41:23;2.65;;;1.33;;
49722;SDS011;43484;43.608;1.458;2023-07-13T00:43:50;2.92;;;1.15;;
49722;SDS011;43484;43.608;1.458;2023-07-13T00:46:27;3.20;;;1.40;;
49722;SDS011;43484;43.608;1.458;2023-07-13T00:48:58;3.58;;;1.35;;
49722;SDS011;43484;43.608;1.458;2023-07-13T00:51:29;4.25;;;1.00;;
49722;SDS011;43484;43.608;1.458;2023-07-13T00:53:59;4.30;;;1.33;;
49722;SDS011;43484;43.608;1.458;2023-07-13T00:56:28;5.00;;;1.30;;
49722;SDS011;43484;43.608;1.458;2023-07-13T00:58:57;2.38;;;1.00;;
49722;SDS011;43484;43.608;1.458;2023-07-13T01:01:26;2.13;;;0.88;;
49722;SDS011;43484;43.608;1.458;2023-07-13T01:03:53;2.55;;;1.00;;
49722;SDS011;43484;43.608;1.458;2023-07-13T01:06:20;2.58;;;1.02;;
49722;SDS011;43484;43.608;1.458;2023-07-13T01:08:47;4.50;;;1.17;;
49722;SDS011;43484;43.608;1.458;2023-07-13T01:11:17;4.20;;;0.90;;
49722;SDS011;43484;43.608;1.458;2023-07-13T01:13:46;2.08;;;1.05;;
49722;SDS011;43484;43.608;1.458;2023-07-13T01:16:15;5.93;;;1.23;;
49722;SDS011;43484;43.608;1.458;2023-07-13T01:18:49;3.75;;;1.35;;
49722;SDS011;43484;43.608;1.458;2023-07-13T01:21:16;5.10;;;1.15;;
49722;SDS011;43484;43.608;1.458;2023-07-13T01:23:43;3.28;;;1.33;;
49722;SDS011;43484;43.608;1.458;2023-07-13T01:26:10;2.50;;;1.00;;
49722;SDS011;43484;43.608;1.458;2023-07-13T01:28:38;3.30;;;1.25;;
49722;SDS011;43484;43.608;1.458;2023-07-13T01:31:05;3.63;;;0.93;;
49722;SDS011;43484;43.608;1.458;2023-07-13T01:33:32;1.67;;;1.17;;
49722;SDS011;43484;43.608;1.458;2023-07-13T01:35:59;9.07;;;1.48;;
49722;SDS011;43484;43.608;1.458;2023-07-13T01:38:26;9.10;;;1.10;;
49722;SDS011;43484;43.608;1.458;2023-07-13T01:40:53;5.05;;;0.95;;
49722;SDS011;43484;43.608;1.458;2023-07-13T01:43:20;3.05;;;1.30;;
49722;SDS011;43484;43.608;1.458;2023-07-13T01:45:47;4.88;;;1.20;;
49722;SDS011;43484;43.608;1.458;2023-07-13T01:48:14;3.28;;;1.02;;
49722;SDS011;43484;43.608;1.458;2023-07-13T01:50:41;3.58;;;1.33;;
49722;SDS011;43484;43.608;1.458;2023-07-13T01:53:07;8.25;;;1.10;;
49722;SDS011;43484;43.608;1.458;2023-07-13T01:55:35;5.07;;;1.63;;
49722;SDS011;43484;43.608;1.458;2023-07-13T01:58:03;3.72;;;1.30;;
49722;SDS011;43484;43.608;1.458;2023-07-13T02:00:31;4.35;;;1.10;;
49722;SDS011;43484;43.608;1.458;2023-07-13T02:02:57;6.25;;;1.52;;
49722;SDS011;43484;43.608;1.458;2023-07-13T02:05:24;5.38;;;1.10;;
49722;SDS011;43484;43.608;1.458;2023-07-13T02:07:51;2.08;;;0.85;;
49722;SDS011;43484;43.608;1.458;2023-07-13T02:10:19;6.63;;;1.40;;
49722;SDS011;43484;43.608;1.458;2023-07-13T02:12:45;5.78;;;1.10;;
49722;SDS011;43484;43.608;1.458;2023-07-13T02:15:12;8.13;;;1.63;;
49722;SDS011;43484;43.608;1.458;2023-07-13T02:17:39;3.63;;;1.55;;
49722;SDS011;43484;43.608;1.458;2023-07-13T02:20:06;5.90;;;1.20;;
49722;SDS011;43484;43.608;1.458;2023-07-13T02:22:34;5.90;;;1.80;;
49722;SDS011;43484;43.608;1.458;2023-07-13T02:25:00;5.30;;;1.20;;
49722;SDS011;43484;43.608;1.458;2023-07-13T02:27:27;5.60;;;1.27;;
49722;SDS011;43484;43.608;1.458;2023-07-13T02:29:54;6.18;;;1.23;;
49722;SDS011;43484;43.608;1.458;2023-07-13T02:32:21;3.70;;;1.40;;
49722;SDS011;43484;43.608;1.458;2023-07-13T02:34:47;8.65;;;1.38;;
49722;SDS011;43484;43.608;1.458;2023-07-13T02:37:14;6.82;;;1.38;;
49722;SDS011;43484;43.608;1.458;2023-07-13T02:39:41;6.18;;;1.55;;
49722;SDS011;43484;43.608;1.458;2023-07-13T02:42:07;6.00;;;1.17;;
49722;SDS011;43484;43.608;1.458;2023-07-13T02:44:34;8.45;;;1.52;;
49722;SDS011;43484;43.608;1.458;2023-07-13T02:47:00;7.65;;;1.40;;
49722;SDS011;43484;43.608;1.458;2023-07-13T02:49:27;4.97;;;1.40;;
49722;SDS011;43484;43.608;1.458;2023-07-13T02:51:54;2.20;;;0.98;;
49722;SDS011;43484;43.608;1.458;2023-07-13T02:54:21;6.45;;;1.40;;
49722;SDS011;43484;43.608;1.458;2023-07-13T02:56:47;6.45;;;1.10;;
49722;SDS011;43484;43.608;1.458;2023-07-13T02:59:14;8.20;;;1.13;;
49722;SDS011;43484;43.608;1.458;2023-07-13T03:01:40;4.65;;;1.08;;
49722;SDS011;43484;43.608;1.458;2023-07-13T03:04:07;7.53;;;1.10;;
49722;SDS011;43484;43.608;1.458;2023-07-13T03:06:34;4.07;;;1.33;;
49722;SDS011;43484;43.608;1.458;2023-07-13T03:09:01;7.60;;;1.27;;
49722;SDS011;43484;43.608;1.458;2023-07-13T03:11:28;8.98;;;1.08;;
49722;SDS011;43484;43.608;1.458;2023-07-13T03:13:55;5.43;;;0.90;;
49722;SDS011;43484;43.608;1.458;2023-07-13T03:16:21;3.75;;;1.08;;
49722;SDS011;43484;43.608;1.458;2023-07-13T03:18:48;9.13;;;1.08;;
49722;SDS011;43484;43.608;1.458;2023-07-13T03:21:15;3.72;;;0.90;;
49722;SDS011;43484;43.608;1.458;2023-07-13T03:23:42;4.82;;;1.25;;
49722;SDS011;43484;43.608;1.458;2023-07-13T03:28:36;8.20;;;0.90;;
49722;SDS011;43484;43.608;1.458;2023-07-13T03:31:04;6.90;;;1.50;;
49722;SDS011;43484;43.608;1.458;2023-07-13T03:33:33;10.10;;;1.35;;
49722;SDS011;43484;43.608;1.458;2023-07-13T03:36:00;5.65;;;0.90;;
49722;SDS011;43484;43.608;1.458;2023-07-13T03:38:26;5.63;;;1.17;;
49722;SDS011;43484;43.608;1.458;2023-07-13T03:40:53;4.70;;;1.35;;
49722;SDS011;43484;43.608;1.458;2023-07-13T03:43:20;5.03;;;0.93;;
49722;SDS011;43484;43.608;1.458;2023-07-13T03:45:47;5.55;;;1.00;;
49722;SDS011;43484;43.608;1.458;2023-07-13T03:48:14;6.95;;;1.20;;
49722;SDS011;43484;43.608;1.458;2023-07-13T03:50:41;7.60;;;1.27;;
49722;SDS011;43484;43.608;1.458;2023-07-13T03:53:08;7.47;;;1.20;;
49722;SDS011;43484;43.608;1.458;2023-07-13T03:55:35;5.35;;;0.93;;
49722;SDS011;43484;43.608;1.458;2023-07-13T04:01:07;7.18;;;1.13;;
49722;SDS011;43484;43.608;1.458;2023-07-13T04:03:35;7.43;;;1.48;;
49722;SDS011;43484;43.608;1.458;2023-07-13T04:06:03;5.05;;;1.25;;
49722;SDS011;43484;43.608;1.458;2023-07-13T04:08:32;12.18;;;1.70;;
49722;SDS011;43484;43.608;1.458;2023-07-13T04:11:01;7.25;;;1.75;;
49722;SDS011;43484;43.608;1.458;2023-07-13T04:13:28;9.68;;;1.30;;
49722;SDS011;43484;43.608;1.458;2023-07-13T04:15:55;6.45;;;0.98;;
49722;SDS011;43484;43.608;1.458;2023-07-13T04:18:22;5.05;;;1.20;;
49722;SDS011;43484;43.608;1.458;2023-07-13T04:20:52;5.38;;;1.13;;
49722;SDS011;43484;43.608;1.458;2023-07-13T04:23:21;6.68;;;1.15;;
49722;SDS011;43484;43.608;1.458;2023-07-13T04:25:48;3.45;;;0.80;;
49722;SDS011;43484;43.608;1.458;2023-07-13T04:28:20;5.18;;;1.00;;
49722;SDS011;43484;43.608;1.458;2023-07-13T04:30:48;8.07;;;1.00;;
49722;SDS011;43484;43.608;1.458;2023-07-13T04:33:16;6.22;;;1.10;;
49722;SDS011;43484;43.608;1.458;2023-07-13T04:35:43;7.00;;;1.70;;
49722;SDS011;43484;43.608;1.458;2023-07-13T04:38:13;6.57;;;1.13;;
49722;SDS011;43484;43.608;1.458;2023-07-13T04:40:47;5.28;;;0.90;;
49722;SDS011;43484;43.608;1.458;2023-07-13T04:43:14;3.47;;;0.90;;
49722;SDS011;43484;43.608;1.458;2023-07-13T04:45:40;6.75;;;1.00;;
49722;SDS011;43484;43.608;1.458;2023-07-13T04:48:07;7.90;;;1.30;;
49722;SDS011;43484;43.608;1.458;2023-07-13T04:50:37;7.07;;;1.42;;
49722;SDS011;43484;43.608;1.458;2023-07-13T04:53:04;4.57;;;0.73;;
49722;SDS011;43484;43.608;1.458;2023-07-13T04:55:31;10.80;;;1.48;;
49722;SDS011;43484;43.608;1.458;2023-07-13T04:57:58;5.10;;;0.98;;
49722;SDS011;43484;43.608;1.458;2023-07-13T05:00:26;3.78;;;1.20;;
49722;SDS011;43484;43.608;1.458;2023-07-13T05:02:54;5.25;;;1.02;;
49722;SDS011;43484;43.608;1.458;2023-07-13T05:05:21;3.83;;;0.73;;
49722;SDS011;43484;43.608;1.458;2023-07-13T05:07:48;8.35;;;1.20;;
49722;SDS011;43484;43.608;1.458;2023-07-13T05:10:15;4.53;;;0.98;;
49722;SDS011;43484;43.608;1.458;2023-07-13T05:12:42;5.03;;;0.98;;
49722;SDS011;43484;43.608;1.458;2023-07-13T05:15:09;4.72;;;0.90;;
49722;SDS011;43484;43.608;1.458;2023-07-13T05:17:36;4.03;;;1.00;;
49722;SDS011;43484;43.608;1.458;2023-07-13T05:20:02;3.25;;;1.00;;
49722;SDS011;43484;43.608;1.458;2023-07-13T05:22:29;10.05;;;1.23;;
49722;SDS011;43484;43.608;1.458;2023-07-13T05:24:56;13.02;;;1.48;;
49722;SDS011;43484;43.608;1.458;2023-07-13T05:27:23;7.28;;;0.85;;
49722;SDS011;43484;43.608;1.458;2023-07-13T05:29:49;5.53;;;1.15;;
49722;SDS011;43484;43.608;1.458;2023-07-13T05:32:16;6.50;;;0.93;;
49722;SDS011;43484;43.608;1.458;2023-07-13T05:34:44;7.18;;;1.20;;
49722;SDS011;43484;43.608;1.458;2023-07-13T05:37:10;3.53;;;0.90;;
49722;SDS011;43484;43.608;1.458;2023-07-13T05:39:37;7.13;;;0.93;;
49722;SDS011;43484;43.608;1.458;2023-07-13T05:42:04;5.57;;;0.90;;
49722;SDS011;43484;43.608;1.458;2023-07-13T05:44:31;9.55;;;1.00;;
49722;SDS011;43484;43.608;1.458;2023-07-13T05:46:57;8.38;;;0.70;;
49722;SDS011;43484;43.608;1.458;2023-07-13T05:49:24;5.03;;;0.90;;
49722;SDS011;43484;43.608;1.458;2023-07-13T05:51:51;6.78;;;1.25;;
49722;SDS011;43484;43.608;1.458;2023-07-13T05:54:17;7.28;;;0.82;;
49722;SDS011;43484;43.608;1.458;2023-07-13T05:56:44;4.57;;;0.90;;
49722;SDS011;43484;43.608;1.458;2023-07-13T05:59:10;5.15;;;1.05;;
49722;SDS011;43484;43.608;1.458;2023-07-13T06:01:38;11.27;;;1.10;;
49722;SDS011;43484;43.608;1.458;2023-07-13T06:04:05;3.15;;;0.73;;
49722;SDS011;43484;43.608;1.458;2023-07-13T06:06:32;4.97;;;0.90;;
49722;SDS011;43484;43.608;1.458;2023-07-13T06:08:58;12.57;;;1.00;;
49722;SDS011;43484;43.608;1.458;2023-07-13T06:11:26;10.90;;;1.10;;
49722;SDS011;43484;43.608;1.458;2023-07-13T06:13:53;10.30;;;0.85;;
49722;SDS011;43484;43.608;1.458;2023-07-13T06:16:20;6.15;;;0.93;;
49722;SDS011;43484;43.608;1.458;2023-07-13T06:18:47;4.90;;;1.00;;
49722;SDS011;43484;43.608;1.458;2023-07-13T06:21:18;5.88;;;1.00;;
49722;SDS011;43484;43.608;1.458;2023-07-13T06:23:46;5.13;;;0.85;;
49722;SDS011;43484;43.608;1.458;2023-07-13T06:26:15;4.47;;;0.75;;
49722;SDS011;43484;43.608;1.458;2023-07-13T06:28:42;6.72;;;0.90;;
49722;SDS011;43484;43.608;1.458;2023-07-13T06:31:09;7.43;;;0.70;;
49722;SDS011;43484;43.608;1.458;2023-07-13T06:33:38;5.40;;;1.00;;
49722;SDS011;43484;43.608;1.458;2023-07-13T06:36:05;8.32;;;1.15;;
49722;SDS011;43484;43.608;1.458;2023-07-13T06:38:34;7.63;;;0.90;;
49722;SDS011;43484;43.608;1.458;2023-07-13T06:41:01;4.55;;;0.63;;
49722;SDS011;43484;43.608;1.458;2023-07-13T06:43:28;7.05;;;1.40;;
49722;SDS011;43484;43.608;1.458;2023-07-13T06:45:55;7.25;;;0.52;;
49722;SDS011;43484;43.608;1.458;2023-07-13T06:48:22;8.35;;;1.00;;
49722;SDS011;43484;43.608;1.458;2023-07-13T06:50:50;6.22;;;0.70;;
49722;SDS011;43484;43.608;1.458;2023-07-13T06:53:18;4.57;;;0.80;;
49722;SDS011;43484;43.608;1.458;2023-07-13T06:55:46;3.92;;;0.65;;
49722;SDS011;43484;43.608;1.458;2023-07-13T06:58:13;8.73;;;1.10;;
49722;SDS011;43484;43.608;1.458;2023-07-13T07:00:41;6.72;;;0.70;;
49722;SDS011;43484;43.608;1.458;2023-07-13T07:03:07;5.57;;;0.65;;
49722;SDS011;43484;43.608;1.458;2023-07-13T07:05:34;2.65;;;0.77;;
49722;SDS011;43484;43.608;1.458;2023-07-13T07:08:01;9.88;;;0.98;;
49722;SDS011;43484;43.608;1.458;2023-07-13T07:10:28;6.35;;;1.33;;
49722;SDS011;43484;43.608;1.458;2023-07-13T07:12:56;7.22;;;0.90;;
49722;SDS011;43484;43.608;1.458;2023-07-13T07:15:23;3.05;;;0.60;;
49722;SDS011;43484;43.608;1.458;2023-07-13T07:17:50;6.90;;;0.70;;
49722;SDS011;43484;43.608;1.458;2023-07-13T07:20:16;12.65;;;2.75;;
49722;SDS011;43484;43.608;1.458;2023-07-13T07:22:43;7.60;;;1.30;;
49722;SDS011;43484;43.608;1.458;2023-07-13T07:25:10;4.35;;;1.10;;
49722;SDS011;43484;43.608;1.458;2023-07-13T07:27:36;3.88;;;0.40;;
49722;SDS011;43484;43.608;1.458;2023-07-13T07:30:06;6.00;;;0.90;;
49722;SDS011;43484;43.608;1.458;2023-07-13T07:32:36;15.50;;;0.73;;
49722;SDS011;43484;43.608;1.458;2023-07-13T07:35:06;4.32;;;0.63;;
49722;SDS011;43484;43.608;1.458;2023-07-13T07:37:33;6.53;;;0.70;;
49722;SDS011;43484;43.608;1.458;2023-07-13T07:40:02;6.03;;;0.60;;
49722;SDS011;43484;43.608;1.458;2023-07-13T07:42:33;3.83;;;0.60;;
49722;SDS011;43484;43.608;1.458;2023-07-13T07:44:59;4.50;;;0.50;;
49722;SDS011;43484;43.608;1.458;2023-07-13T07:47:27;8.10;;;0.63;;
49722;SDS011;43484;43.608;1.458;2023-07-13T07:49:54;7.35;;;0.50;;
49722;SDS011;43484;43.608;1.458;2023-07-13T07:52:21;5.95;;;0.75;;
49722;SDS011;43484;43.608;1.458;2023-07-13T07:54:48;2.33;;;0.50;;
49722;SDS011;43484;43.608;1.458;2023-07-13T07:57:17;7.35;;;0.70;;
49722;SDS011;43484;43.608;1.458;2023-07-13T08:00:04;9.52;;;0.77;;
49722;SDS011;43484;43.608;1.458;2023-07-13T08:02:34;3.28;;;0.70;;
49722;SDS011;43484;43.608;1.458;2023-07-13T08:05:04;7.80;;;0.50;;
49722;SDS011;43484;43.608;1.458;2023-07-13T08:07:34;2.60;;;0.47;;
49722;SDS011;43484;43.608;1.458;2023-07-13T08:10:01;3.88;;;0.50;;
49722;SDS011;43484;43.608;1.458;2023-07-13T08:12:28;7.38;;;0.63;;
49722;SDS011;43484;43.608;1.458;2023-07-13T08:14:57;3.78;;;0.50;;
49722;SDS011;43484;43.608;1.458;2023-07-13T08:17:27;3.30;;;0.57;;
49722;SDS011;43484;43.608;1.458;2023-07-13T08:19:54;3.50;;;0.65;;
49722;SDS011;43484;43.608;1.458;2023-07-13T08:22:21;6.82;;;1.38;;
49722;SDS011;43484;43.608;1.458;2023-07-13T08:24:48;14.25;;;0.70;;
49722;SDS011;43484;43.608;1.458;2023-07-13T08:27:25;3.92;;;0.68;;
49722;SDS011;43484;43.608;1.458;2023-07-13T08:29:53;4.82;;;0.93;;
49722;SDS011;43484;43.608;1.458;2023-07-13T08:32:20;4.75;;;0.80;;
49722;SDS011;43484;43.608;1.458;2023-07-13T08:34:49;5.35;;;0.68;;
49722;SDS011;43484;43.608;1.458;2023-07-13T08:37:17;7.80;;;0.50;;
49722;SDS011;43484;43.608;1.458;2023-07-13T08:39:44;4.18;;;0.60;;
49722;SDS011;43484;43.608;1.458;2023-07-13T08:45:13;4.55;;;0.57;;
49722;SDS011;43484;43.608;1.458;2023-07-13T08:47:44;6.85;;;0.57;;
49722;SDS011;43484;43.608;1.458;2023-07-13T08:50:16;3.33;;;0.30;;
49722;SDS011;43484;43.608;1.458;2023-07-13T08:52:45;3.72;;;0.50;;
49722;SDS011;43484;43.608;1.458;2023-07-13T08:55:14;6.20;;;0.75;;
49722;SDS011;43484;43.608;1.458;2023-07-13T08:57:44;7.13;;;0.40;;
49722;SDS011;43484;43.608;1.458;2023-07-13T09:00:18;3.83;;;0.77;;
49722;SDS011;43484;43.608;1.458;2023-07-13T09:05:38;13.90;;;0.80;;
49722;SDS011;43484;43.608;1.458;2023-07-13T09:10:46;6.25;;;0.50;;
49722;SDS011;43484;43.608;1.458;2023-07-13T09:15:48;1.77;;;0.50;;
49722;SDS011;43484;43.608;1.458;2023-07-13T09:18:27;3.45;;;0.40;;
49722;SDS011;43484;43.608;1.458;2023-07-13T09:21:00;5.57;;;0.52;;
49722;SDS011;43484;43.608;1.458;2023-07-13T09:23:29;7.70;;;0.63;;
49722;SDS011;43484;43.608;1.458;2023-07-13T09:26:39;4.40;;;0.40;;
49722;SDS011;43484;43.608;1.458;2023-07-13T09:28:58;13.35;;;0.55;;
49722;SDS011;43484;43.608;1.458;2023-07-13T09:31:42;4.55;;;0.50;;
49722;SDS011;43484;43.608;1.458;2023-07-13T09:34:13;3.17;;;0.52;;
49722;SDS011;43484;43.608;1.458;2023-07-13T09:36:39;7.38;;;1.10;;
49722;SDS011;43484;43.608;1.458;2023-07-13T09:41:58;5.85;;;0.68;;
49722;SDS011;43484;43.608;1.458;2023-07-13T09:44:34;3.38;;;0.63;;
49722;SDS011;43484;43.608;1.458;2023-07-13T09:47:03;5.68;;;0.68;;
49722;SDS011;43484;43.608;1.458;2023-07-13T09:49:42;4.97;;;0.45;;
49722;SDS011;43484;43.608;1.458;2023-07-13T09:52:14;4.97;;;0.90;;
49722;SDS011;43484;43.608;1.458;2023-07-13T09:54:45;2.75;;;0.50;;
49722;SDS011;43484;43.608;1.458;2023-07-13T09:57:19;5.78;;;0.68;;
49722;SDS011;43484;43.608;1.458;2023-07-13T10:00:03;7.47;;;0.70;;
49722;SDS011;43484;43.608;1.458;2023-07-13T10:02:36;8.53;;;0.77;;
49722;SDS011;43484;43.608;1.458;2023-07-13T10:05:07;4.18;;;0.90;;
49722;SDS011;43484;43.608;1.458;2023-07-13T10:07:40;0.82;;;0.30;;
49722;SDS011;43484;43.608;1.458;2023-07-13T10:10:17;2.75;;;0.40;;
49722;SDS011;43484;43.608;1.458;2023-07-13T10:12:47;4.00;;;0.60;;
49722;SDS011;43484;43.608;1.458;2023-07-13T10:15:16;5.05;;;0.70;;
49722;SDS011;43484;43.608;1.458;2023-07-13T10:17:51;4.25;;;0.50;;
49722;SDS011;43484;43.608;1.458;2023-07-13T10:20:19;4.65;;;0.45;;
49722;SDS011;43484;43.608;1.458;2023-07-13T10:23:00;4.03;;;0.85;;
49722;SDS011;43484;43.608;1.458;2023-07-13T10:25:31;2.28;;;0.63;;
49722;SDS011;43484;43.608;1.458;2023-07-13T10:30:49;4.40;;;0.60;;
49722;SDS011;43484;43.608;1.458;2023-07-13T10:33:20;3.03;;;0.38;;
49722;SDS011;43484;43.608;1.458;2023-07-13T10:35:49;8.70;;;0.70;;
49722;SDS011;43484;43.608;1.458;2023-07-13T10:38:22;7.60;;;0.90;;
49722;SDS011;43484;43.608;1.458;2023-07-13T10:43:28;3.35;;;0.70;;
49722;SDS011;43484;43.608;1.458;2023-07-13T10:46:00;3.13;;;0.80;;
49722;SDS011;43484;43.608;1.458;2023-07-13T10:48:28;3.35;;;0.60;;
49722;SDS011;43484;43.608;1.458;2023-07-13T10:50:58;2.75;;;0.75;;
49722;SDS011;43484;43.608;1.458;2023-07-13T10:53:28;7.28;;;0.60;;
49722;SDS011;43484;43.608;1.458;2023-07-13T10:56:00;3.28;;;0.55;;
49722;SDS011;43484;43.608;1.458;2023-07-13T10:58:36;3.25;;;0.80;;
49722;SDS011;43484;43.608;1.458;2023-07-13T11:01:11;3.03;;;0.57;;
49722;SDS011;43484;43.608;1.458;2023-07-13T11:06:11;3.30;;;0.60;;
49722;SDS011;43484;43.608;1.458;2023-07-13T11:11:47;3.15;;;0.40;;
49722;SDS011;43484;43.608;1.458;2023-07-13T11:25:31;3.38;;;0.80;;
49722;SDS011;43484;43.608;1.458;2023-07-13T11:30:43;3.47;;;0.60;;
49722;SDS011;43484;43.608;1.458;2023-07-13T11:36:04;4.30;;;0.75;;
49722;SDS011;43484;43.608;1.458;2023-07-13T11:38:39;2.10;;;0.70;;
49722;SDS011;43484;43.608;1.458;2023-07-13T11:41:19;8.38;;;1.00;;
49722;SDS011;43484;43.608;1.458;2023-07-13T11:43:51;2.83;;;0.50;;
49722;SDS011;43484;43.608;1.458;2023-07-13T11:46:24;2.03;;;0.50;;
49722;SDS011;43484;43.608;1.458;2023-07-13T11:48:53;2.70;;;0.60;;
49722;SDS011;43484;43.608;1.458;2023-07-13T11:51:25;3.25;;;0.50;;
49722;SDS011;43484;43.608;1.458;2023-07-13T11:53:55;1.98;;;0.60;;
49722;SDS011;43484;43.608;1.458;2023-07-13T11:56:25;3.40;;;0.60;;
49722;SDS011;43484;43.608;1.458;2023-07-13T11:58:53;4.32;;;0.75;;
49722;SDS011;43484;43.608;1.458;2023-07-13T12:01:26;7.00;;;0.70;;
49722;SDS011;43484;43.608;1.458;2023-07-13T12:04:02;2.90;;;0.80;;
49722;SDS011;43484;43.608;1.458;2023-07-13T12:06:31;2.03;;;0.50;;
49722;SDS011;43484;43.608;1.458;2023-07-13T12:09:00;3.63;;;0.60;;
49722;SDS011;43484;43.608;1.458;2023-07-13T12:11:29;2.85;;;0.82;;
49722;SDS011;43484;43.608;1.458;2023-07-13T12:14:00;3.58;;;0.68;;
49722;SDS011;43484;43.608;1.458;2023-07-13T12:19:01;4.82;;;0.82;;
49722;SDS011;43484;43.608;1.458;2023-07-13T12:21:30;3.15;;;0.70;;
49722;SDS011;43484;43.608;1.458;2023-07-13T12:23:59;5.18;;;0.60;;
49722;SDS011;43484;43.608;1.458;2023-07-13T12:26:29;3.20;;;0.60;;
49722;SDS011;43484;43.608;1.458;2023-07-13T12:28:58;5.68;;;0.80;;
49722;SDS011;43484;43.608;1.458;2023-07-13T12:34:12;4.95;;;0.63;;
49722;SDS011;43484;43.608;1.458;2023-07-13T12:37:02;8.05;;;0.68;;
49722;SDS011;43484;43.608;1.458;2023-07-13T12:39:36;1.17;;;0.50;;
49722;SDS011;43484;43.608;1.458;2023-07-13T12:42:28;4.10;;;0.80;;
49722;SDS011;43484;43.608;1.458;2023-07-13T12:44:58;1.85;;;0.30;;
49722;SDS011;43484;43.608;1.458;2023-07-13T12:47:28;4.85;;;0.52;;
49722;SDS011;43484;43.608;1.458;2023-07-13T12:49:59;2.42;;;0.63;;
49722;SDS011;43484;43.608;1.458;2023-07-13T12:52:32;3.33;;;0.63;;
49722;SDS011;43484;43.608;1.458;2023-07-13T12:55:14;5.22;;;0.60;;
49722;SDS011;43484;43.608;1.458;2023-07-13T12:57:57;2.72;;;0.50;;
49722;SDS011;43484;43.608;1.458;2023-07-13T13:03:11;6.05;;;0.80;;
49722;SDS011;43484;43.608;1.458;2023-07-13T13:08:26;4.30;;;0.45;;
49722;SDS011;43484;43.608;1.458;2023-07-13T13:10:52;2.85;;;0.70;;
49722;SDS011;43484;43.608;1.458;2023-07-13T13:13:19;2.60;;;0.52;;
49722;SDS011;43484;43.608;1.458;2023-07-13T13:15:47;2.67;;;0.98;;
49722;SDS011;43484;43.608;1.458;2023-07-13T13:18:17;2.33;;;0.68;;
49722;SDS011;43484;43.608;1.458;2023-07-13T13:20:46;4.82;;;0.57;;
49722;SDS011;43484;43.608;1.458;2023-07-13T13:23:14;8.43;;;0.70;;
49722;SDS011;43484;43.608;1.458;2023-07-13T13:25:47;3.45;;;0.55;;
49722;SDS011;43484;43.608;1.458;2023-07-13T13:28:18;7.22;;;0.50;;
49722;SDS011;43484;43.608;1.458;2023-07-13T13:30:47;4.38;;;0.40;;
49722;SDS011;43484;43.608;1.458;2023-07-13T13:33:17;4.30;;;0.57;;
49722;SDS011;43484;43.608;1.458;2023-07-13T13:35:44;2.80;;;0.57;;
49722;SDS011;43484;43.608;1.458;2023-07-13T13:38:16;7.00;;;0.85;;
49722;SDS011;43484;43.608;1.458;2023-07-13T13:40:45;3.40;;;0.73;;
49722;SDS011;43484;43.608;1.458;2023-07-13T13:43:16;2.58;;;0.40;;
49722;SDS011;43484;43.608;1.458;2023-07-13T13:45:54;6.30;;;0.60;;
49722;SDS011;43484;43.608;1.458;2023-07-13T13:48:28;4.90;;;0.60;;
49722;SDS011;43484;43.608;1.458;2023-07-13T13:50:58;1.50;;;0.47;;
49722;SDS011;43484;43.608;1.458;2023-07-13T13:53:26;2.08;;;0.70;;
49722;SDS011;43484;43.608;1.458;2023-07-13T13:55:53;3.30;;;0.40;;
49722;SDS011;43484;43.608;1.458;2023-07-13T13:58:19;3.53;;;0.88;;
49722;SDS011;43484;43.608;1.458;2023-07-13T14:00:47;4.72;;;0.55;;
49722;SDS011;43484;43.608;1.458;2023-07-13T14:03:17;7.20;;;0.85;;
49722;SDS011;43484;43.608;1.458;2023-07-13T14:05:46;3.45;;;0.60;;
49722;SDS011;43484;43.608;1.458;2023-07-13T14:08:18;2.83;;;0.55;;
49722;SDS011;43484;43.608;1.458;2023-07-13T14:10:50;5.00;;;0.50;;
49722;SDS011;43484;43.608;1.458;2023-07-13T14:13:28;4.55;;;0.40;;
49722;SDS011;43484;43.608;1.458;2023-07-13T14:16:02;3.78;;;0.63;;
49722;SDS011;43484;43.608;1.458;2023-07-13T14:18:31;2.88;;;0.70;;
49722;SDS011;43484;43.608;1.458;2023-07-13T14:20:58;3.63;;;0.45;;
49722;SDS011;43484;43.608;1.458;2023-07-13T14:23:24;1.65;;;0.40;;
49722;SDS011;43484;43.608;1.458;2023-07-13T14:25:51;4.80;;;0.50;;
49722;SDS011;43484;43.608;1.458;2023-07-13T14:28:23;3.58;;;0.70;;
49722;SDS011;43484;43.608;1.458;2023-07-13T14:33:21;3.25;;;0.55;;
49722;SDS011;43484;43.608;1.458;2023-07-13T14:35:49;4.40;;;0.50;;
49722;SDS011;43484;43.608;1.458;2023-07-13T14:38:18;4.95;;;0.80;;
49722;SDS011;43484;43.608;1.458;2023-07-13T14:40:46;4.38;;;0.90;;
49722;SDS011;43484;43.608;1.458;2023-07-13T14:43:13;3.72;;;0.40;;
49722;SDS011;43484;43.608;1.458;2023-07-13T14:45:42;2.92;;;0.50;;
49722;SDS011;43484;43.608;1.458;2023-07-13T14:48:16;4.07;;;0.65;;
49722;SDS011;43484;43.608;1.458;2023-07-13T14:50:46;6.28;;;0.60;;
49722;SDS011;43484;43.608;1.458;2023-07-13T14:53:17;2.70;;;0.65;;
49722;SDS011;43484;43.608;1.458;2023-07-13T14:55:43;4.72;;;0.50;;
49722;SDS011;43484;43.608;1.458;2023-07-13T14:58:10;2.80;;;0.47;;
49722;SDS011;43484;43.608;1.458;2023-07-13T15:00:37;1.92;;;0.40;;
49722;SDS011;43484;43.608;1.458;2023-07-13T15:03:05;4.72;;;0.50;;
49722;SDS011;43484;43.608;1.458;2023-07-13T15:05:32;3.97;;;0.50;;
49722;SDS011;43484;43.608;1.458;2023-07-13T15:08:00;1.20;;;0.43;;
49722;SDS011;43484;43.608;1.458;2023-07-13T15:10:31;3.53;;;0.60;;
49722;SDS011;43484;43.608;1.458;2023-07-13T15:13:11;1.45;;;0.57;;
49722;SDS011;43484;43.608;1.458;2023-07-13T15:15:40;2.05;;;0.70;;
49722;SDS011;43484;43.608;1.458;2023-07-13T15:18:11;2.50;;;0.57;;
49722;SDS011;43484;43.608;1.458;2023-07-13T15:20:38;4.43;;;0.50;;
49722;SDS011;43484;43.608;1.458;2023-07-13T15:23:05;5.00;;;0.65;;
49722;SDS011;43484;43.608;1.458;2023-07-13T15:25:32;4.15;;;0.77;;
49722;SDS011;43484;43.608;1.458;2023-07-13T15:28:00;2.20;;;0.65;;
49722;SDS011;43484;43.608;1.458;2023-07-13T15:30:35;2.58;;;0.70;;
49722;SDS011;43484;43.608;1.458;2023-07-13T15:35:43;1.55;;;0.40;;
49722;SDS011;43484;43.608;1.458;2023-07-13T15:38:21;4.15;;;0.43;;
49722;SDS011;43484;43.608;1.458;2023-07-13T15:40:54;2.17;;;0.50;;
49722;SDS011;43484;43.608;1.458;2023-07-13T15:43:22;5.25;;;0.70;;
49722;SDS011;43484;43.608;1.458;2023-07-13T15:45:49;4.90;;;0.40;;
49722;SDS011;43484;43.608;1.458;2023-07-13T15:48:21;8.45;;;0.60;;
49722;SDS011;43484;43.608;1.458;2023-07-13T15:50:50;3.38;;;0.60;;
49722;SDS011;43484;43.608;1.458;2023-07-13T15:53:25;3.95;;;0.52;;
49722;SDS011;43484;43.608;1.458;2023-07-13T15:55:59;5.75;;;0.88;;
49722;SDS011;43484;43.608;1.458;2023-07-13T15:58:27;6.85;;;1.02;;
49722;SDS011;43484;43.608;1.458;2023-07-13T16:00:55;3.33;;;0.60;;
49722;SDS011;43484;43.608;1.458;2023-07-13T16:03:23;3.50;;;0.65;;